Time;durP1;ratioP1;P1;durP2;ratioP2;P2;SDS_P1;SDS_P2;PMS_P1;PMS_P2;Temp;Humidity;BMP_temperature;BMP_pressure;BME280_temperature;BME280_humidity;BME280_pressure;Samples;Min_cycle;Max_cycle;Signal;HPM_P1;HPM_P2
2023/10/23 00:01:39;;;;;;;60.35;56.38;;;12.40;99.90;;;;;;4971642;28;20039;-75
2023/10/23 00:04:06;;;;;;;60.13;55.97;;;12.40;99.90;;;;;;4964450;28;20038;-75
2023/10/23 00:06:32;;;;;;;66.05;61.92;;;12.40;99.90;;;;;;4972873;28;20027;-75
2023/10/23 00:08:58;;;;;;;63.28;59.13;;;12.40;99.90;;;;;;4976920;28;20038;-75
2023/10/23 00:11:25;;;;;;;66.80;62.30;;;12.30;99.90;;;;;;4974023;28;20102;-75
2023/10/23 00:13:52;;;;;;;62.72;58.78;;;12.30;99.90;;;;;;4962476;28;20376;-74
2023/10/23 00:16:18;;;;;;;59.42;55.35;;;12.20;99.90;;;;;;4967003;28;20050;-75
2023/10/23 00:18:44;;;;;;;63.85;59.45;;;12.20;99.90;;;;;;4974597;28;20023;-75
2023/10/23 00:21:10;;;;;;;58.92;55.35;;;12.30;99.90;;;;;;4966359;28;20062;-75
2023/10/23 00:23:36;;;;;;;60.08;55.78;;;12.30;99.90;;;;;;4976820;28;20038;-75
2023/10/23 00:26:05;;;;;;;64.38;60.03;;;12.40;99.90;;;;;;4975589;28;20460;-75
2023/10/23 00:28:32;;;;;;;62.28;58.58;;;12.30;99.90;;;;;;4976507;28;20484;-75
2023/10/23 00:30:58;;;;;;;59.90;55.92;;;12.20;99.90;;;;;;4969517;28;20514;-75
2023/10/23 00:33:25;;;;;;;63.55;59.67;;;12.30;99.90;;;;;;4973355;28;20043;-75
2023/10/23 00:35:51;;;;;;;65.75;61.63;;;12.30;99.90;;;;;;4971355;28;20038;-75
2023/10/23 00:38:17;;;;;;;60.53;56.33;;;12.30;99.90;;;;;;4971071;28;20045;-75
2023/10/23 00:40:43;;;;;;;69.70;65.60;;;12.30;99.90;;;;;;4973955;28;20030;-75
2023/10/23 00:43:22;;;;;;;70.95;66.88;;;12.20;99.90;;;;;;4974669;28;20075;-75
2023/10/23 00:45:54;;;;;;;67.35;63.17;;;12.20;99.90;;;;;;4973794;28;20030;-75
2023/10/23 00:48:21;;;;;;;61.88;57.60;;;12.20;99.90;;;;;;4971282;28;20039;-75
2023/10/23 00:50:48;;;;;;;62.47;58.22;;;12.20;99.90;;;;;;4967462;28;20034;-75
2023/10/23 00:53:18;;;;;;;62.60;58.90;;;12.10;99.90;;;;;;4966025;28;20045;-75
2023/10/23 00:55:45;;;;;;;57.45;53.75;;;12.00;99.90;;;;;;4965088;28;20396;-75
2023/10/23 00:58:11;;;;;;;60.35;56.88;;;12.10;99.90;;;;;;4970498;28;20027;-75
2023/10/23 01:00:37;;;;;;;61.47;57.47;;;12.10;99.90;;;;;;4959277;28;20049;-75
2023/10/23 01:03:04;;;;;;;66.25;62.30;;;12.00;99.90;;;;;;4967718;28;20031;-75
2023/10/23 01:05:30;;;;;;;57.40;53.22;;;11.90;99.90;;;;;;4972003;28;20040;-75
2023/10/23 01:07:56;;;;;;;57.15;53.30;;;11.80;99.90;;;;;;4967359;28;20066;-75
2023/10/23 01:10:22;;;;;;;66.22;62.47;;;11.80;99.90;;;;;;4970594;28;20032;-75
2023/10/23 01:12:48;;;;;;;73.95;69.60;;;11.80;99.90;;;;;;4970744;28;20050;-75
2023/10/23 01:15:14;;;;;;;60.78;56.92;;;11.90;99.90;;;;;;4970441;28;20619;-75
2023/10/23 01:17:40;;;;;;;63.08;58.67;;;11.80;99.90;;;;;;4987130;28;20050;-75
2023/10/23 01:20:08;;;;;;;56.08;52.42;;;11.90;99.90;;;;;;4958926;28;20411;-75
2023/10/23 01:22:34;;;;;;;59.05;55.70;;;11.80;99.90;;;;;;4971120;28;20050;-75
2023/10/23 01:25:00;;;;;;;57.50;53.42;;;11.80;99.90;;;;;;4974321;28;20027;-75
2023/10/23 01:27:27;;;;;;;55.40;51.60;;;11.90;99.90;;;;;;4970636;28;20046;-75
2023/10/23 01:29:53;;;;;;;54.80;51.42;;;11.90;99.90;;;;;;4960991;28;20050;-75
2023/10/23 01:32:19;;;;;;;52.58;48.90;;;11.80;99.90;;;;;;4972328;28;20046;-75
2023/10/23 01:34:46;;;;;;;52.58;49.38;;;11.80;99.90;;;;;;4969083;28;20034;-75
2023/10/23 01:37:12;;;;;;;54.92;51.35;;;11.80;99.90;;;;;;4968096;28;20391;-75
2023/10/23 01:39:38;;;;;;;48.13;45.22;;;11.90;99.90;;;;;;4973554;28;20031;-75
2023/10/23 01:42:04;;;;;;;51.17;48.08;;;11.90;99.90;;;;;;4974466;28;20365;-75
2023/10/23 01:44:31;;;;;;;61.42;57.25;;;11.90;99.90;;;;;;4973697;28;20045;-75
2023/10/23 01:46:57;;;;;;;59.20;55.67;;;11.80;99.90;;;;;;4967539;28;20412;-75
2023/10/23 01:49:23;;;;;;;61.63;57.78;;;11.70;99.90;;;;;;4968322;28;20470;-75
2023/10/23 01:51:49;;;;;;;66.70;62.78;;;11.60;99.90;;;;;;4970792;28;20041;-75
2023/10/23 01:54:15;;;;;;;54.92;51.58;;;11.60;99.90;;;;;;4968627;28;20397;-75
2023/10/23 01:56:41;;;;;;;53.15;49.47;;;11.60;99.90;;;;;;4967266;28;20038;-75
2023/10/23 01:59:07;;;;;;;53.53;50.63;;;11.60;99.90;;;;;;4970659;28;20463;-74
2023/10/23 02:01:38;;;;;;;52.55;48.90;;;11.50;99.90;;;;;;4972709;28;20041;-75
2023/10/23 02:04:04;;;;;;;51.05;47.97;;;11.50;99.90;;;;;;4965863;28;20034;-75
2023/10/23 02:06:30;;;;;;;54.33;50.88;;;11.40;99.90;;;;;;4964230;28;20031;-75
2023/10/23 02:08:56;;;;;;;49.33;46.28;;;11.40;99.90;;;;;;4963125;28;20035;-75
2023/10/23 02:11:22;;;;;;;54.03;50.88;;;11.40;99.90;;;;;;4963771;28;20487;-75
2023/10/23 02:13:48;;;;;;;49.88;46.65;;;11.40;99.90;;;;;;4956126;28;20039;-74
2023/10/23 02:16:14;;;;;;;48.67;45.67;;;11.40;99.90;;;;;;4970430;28;20447;-75
2023/10/23 02:18:41;;;;;;;44.30;41.25;;;11.30;99.90;;;;;;4967082;28;20054;-75
2023/10/23 02:21:07;;;;;;;42.92;40.05;;;11.40;99.90;;;;;;4966876;28;20031;-73
2023/10/23 02:23:33;;;;;;;42.47;39.78;;;11.40;99.90;;;;;;4972004;28;20034;-75
2023/10/23 02:25:59;;;;;;;44.45;41.42;;;11.50;99.90;;;;;;4965452;28;20034;-75
2023/10/23 02:28:26;;;;;;;41.08;38.42;;;11.40;99.90;;;;;;4964837;28;20046;-75
2023/10/23 02:30:52;;;;;;;44.47;41.00;;;11.50;99.90;;;;;;4967120;28;20042;-75
2023/10/23 02:33:18;;;;;;;50.95;47.67;;;11.60;99.90;;;;;;4979688;28;20043;-75
2023/10/23 02:35:44;;;;;;;60.15;56.55;;;11.60;99.90;;;;;;4968139;28;20037;-75
2023/10/23 02:38:11;;;;;;;77.20;71.75;;;11.50;99.90;;;;;;4967507;28;20034;-75
2023/10/23 02:40:37;;;;;;;73.75;69.53;;;11.60;99.90;;;;;;4980560;28;20428;-75
2023/10/23 02:43:03;;;;;;;70.32;66.35;;;11.60;99.90;;;;;;4966077;28;20091;-75
2023/10/23 02:45:31;;;;;;;71.40;66.93;;;11.60;99.90;;;;;;4966812;28;20423;-75
2023/10/23 02:47:58;;;;;;;73.22;68.90;;;11.50;99.90;;;;;;4968934;28;20019;-75
2023/10/23 02:50:24;;;;;;;73.10;68.82;;;11.70;99.90;;;;;;4969936;28;20507;-75
2023/10/23 02:52:50;;;;;;;77.10;72.75;;;11.70;99.90;;;;;;4970029;28;20039;-75
2023/10/23 02:55:16;;;;;;;78.43;73.97;;;11.60;99.90;;;;;;4963196;28;20435;-75
2023/10/23 02:57:42;;;;;;;80.03;75.22;;;11.70;99.90;;;;;;4965218;28;20401;-75
2023/10/23 03:00:09;;;;;;;82.30;77.38;;;11.70;99.90;;;;;;4964694;28;20036;-75
2023/10/23 03:02:35;;;;;;;80.90;76.15;;;11.70;99.90;;;;;;4969759;28;20018;-75
2023/10/23 03:05:01;;;;;;;78.50;73.75;;;11.70;99.90;;;;;;4967489;28;20514;-75
2023/10/23 03:07:27;;;;;;;80.13;75.65;;;11.60;99.90;;;;;;4971619;28;20038;-75
2023/10/23 03:09:53;;;;;;;77.25;72.45;;;11.70;99.90;;;;;;4967054;28;20027;-75
2023/10/23 03:12:20;;;;;;;81.00;76.63;;;11.70;99.90;;;;;;4968593;28;20046;-75
2023/10/23 03:14:46;;;;;;;82.80;77.90;;;11.70;99.90;;;;;;4968658;28;20038;-75
2023/10/23 03:17:12;;;;;;;85.72;80.25;;;11.80;99.90;;;;;;4971716;28;20420;-75
2023/10/23 03:19:38;;;;;;;84.82;79.85;;;11.80;99.90;;;;;;4961145;28;20026;-76
2023/10/23 03:22:04;;;;;;;77.63;73.03;;;11.80;99.90;;;;;;4978046;28;20073;-75
2023/10/23 03:24:30;;;;;;;89.32;84.55;;;11.80;99.90;;;;;;4977336;28;20039;-75
2023/10/23 03:26:56;;;;;;;84.57;79.90;;;11.80;99.90;;;;;;4964611;28;20055;-75
2023/10/23 03:29:22;;;;;;;88.63;83.72;;;11.90;99.90;;;;;;4967230;28;20023;-75
2023/10/23 03:31:48;;;;;;;89.95;84.90;;;11.90;99.90;;;;;;4956262;28;20377;-74
2023/10/23 03:34:14;;;;;;;89.50;83.93;;;11.80;99.90;;;;;;4968916;28;20046;-75
2023/10/23 03:36:40;;;;;;;88.15;83.30;;;11.80;99.90;;;;;;4970150;28;20049;-75
2023/10/23 03:39:07;;;;;;;89.90;84.53;;;11.90;99.90;;;;;;4960557;28;20039;-74
2023/10/23 03:41:33;;;;;;;94.03;88.78;;;12.00;99.90;;;;;;4964508;28;20058;-75
2023/10/23 03:44:02;;;;;;;94.93;89.88;;;12.00;99.90;;;;;;4968703;28;20035;-75
2023/10/23 03:46:28;;;;;;;91.95;86.72;;;12.10;99.90;;;;;;4962978;28;20046;-74
2023/10/23 03:48:56;;;;;;;92.15;87.05;;;12.10;99.90;;;;;;4969186;28;20030;-75
2023/10/23 03:51:22;;;;;;;93.82;88.60;;;12.10;99.90;;;;;;4971208;28;20034;-75
2023/10/23 03:53:48;;;;;;;93.15;87.40;;;12.20;99.90;;;;;;4970502;28;20501;-75
2023/10/23 03:56:14;;;;;;;102.15;96.28;;;12.20;99.90;;;;;;4966460;28;20031;-75
2023/10/23 03:58:40;;;;;;;91.38;86.32;;;12.10;99.90;;;;;;4970907;28;20491;-75
2023/10/23 04:01:06;;;;;;;98.22;92.72;;;11.90;99.90;;;;;;4962238;28;20039;-75
2023/10/23 04:03:32;;;;;;;94.55;89.22;;;11.90;99.90;;;;;;4984251;28;20054;-75
2023/10/23 04:05:59;;;;;;;111.63;105.68;;;11.80;99.90;;;;;;4964901;28;20031;-75
2023/10/23 04:08:25;;;;;;;99.95;94.45;;;11.80;99.90;;;;;;4985951;28;20046;-75
2023/10/23 04:10:51;;;;;;;92.22;86.90;;;11.80;99.90;;;;;;4985338;28;20038;-75
2023/10/23 04:13:17;;;;;;;87.30;82.72;;;11.80;99.90;;;;;;4960587;28;20041;-75
2023/10/23 04:15:57;;;;;;;82.45;77.60;;;11.80;99.90;;;;;;4964893;28;20059;-75
2023/10/23 04:18:26;;;;;;;85.00;80.07;;;11.90;99.90;;;;;;4964429;28;20036;-75
2023/10/23 04:21:05;;;;;;;84.15;79.53;;;11.90;99.90;;;;;;4964166;28;20038;-75
2023/10/23 04:23:31;;;;;;;96.18;90.82;;;11.80;99.90;;;;;;4969244;28;20035;-75
2023/10/23 04:25:57;;;;;;;94.72;89.20;;;12.00;99.90;;;;;;4984151;28;20062;-75
2023/10/23 04:28:24;;;;;;;91.03;86.03;;;12.00;99.90;;;;;;4961966;28;20046;-75
2023/10/23 04:30:50;;;;;;;82.10;77.28;;;11.80;99.90;;;;;;4974344;28;20403;-75
2023/10/23 04:33:21;;;;;;;96.50;91.32;;;11.80;99.90;;;;;;4974952;28;20051;-75
2023/10/23 04:35:54;;;;;;;88.07;82.90;;;11.70;99.90;;;;;;4967245;28;20353;-74
2023/10/23 04:38:20;;;;;;;97.65;92.25;;;11.70;99.90;;;;;;4957502;28;20030;-74
2023/10/23 04:40:46;;;;;;;89.85;84.78;;;11.70;99.90;;;;;;4971803;28;20039;-75
2023/10/23 04:43:13;;;;;;;98.82;93.22;;;11.60;99.90;;;;;;4970235;28;20042;-75
2023/10/23 04:45:39;;;;;;;96.72;91.50;;;11.60;99.90;;;;;;4971415;28;20034;-75
2023/10/23 04:48:05;;;;;;;80.28;75.90;;;11.60;99.90;;;;;;4971617;28;20031;-75
2023/10/23 04:50:35;;;;;;;91.63;86.55;;;11.60;99.90;;;;;;4960364;28;20037;-75
2023/10/23 04:53:02;;;;;;;97.05;91.63;;;11.60;99.90;;;;;;4971010;28;20489;-75
2023/10/23 04:55:34;;;;;;;97.13;91.70;;;11.70;99.90;;;;;;4955468;28;20039;-75
2023/10/23 04:58:03;;;;;;;102.97;97.40;;;11.70;99.90;;;;;;4962627;28;20500;-75
2023/10/23 05:00:29;;;;;;;92.00;86.70;;;11.60;99.90;;;;;;4968169;28;20039;-74
2023/10/23 05:02:56;;;;;;;100.15;94.47;;;11.60;99.90;;;;;;4969483;28;20384;-75
2023/10/23 05:05:22;;;;;;;93.07;88.18;;;11.60;99.90;;;;;;4958273;28;20035;-75
2023/10/23 05:07:48;;;;;;;97.15;91.88;;;11.60;99.90;;;;;;4958448;28;20028;-75
2023/10/23 05:10:14;;;;;;;90.10;85.30;;;11.60;99.90;;;;;;4956967;28;20038;-75
2023/10/23 05:12:40;;;;;;;94.53;89.35;;;11.60;99.90;;;;;;4969067;28;20369;-75
2023/10/23 05:15:08;;;;;;;84.13;79.57;;;11.60;99.90;;;;;;4961582;28;20027;-75
2023/10/23 05:17:34;;;;;;;100.53;94.93;;;11.60;99.90;;;;;;4970780;28;20515;-75
2023/10/23 05:20:01;;;;;;;93.60;88.65;;;11.60;99.90;;;;;;4964550;28;20030;-75
2023/10/23 05:22:27;;;;;;;85.90;80.95;;;11.60;99.90;;;;;;4959760;28;20396;-74
2023/10/23 05:24:53;;;;;;;79.75;75.57;;;11.70;99.90;;;;;;4970820;28;20031;-75
2023/10/23 05:27:19;;;;;;;78.57;74.07;;;11.70;99.90;;;;;;4961437;28;20046;-75
2023/10/23 05:29:45;;;;;;;85.25;80.78;;;11.60;99.90;;;;;;4967233;28;20045;-75
2023/10/23 05:32:11;;;;;;;80.25;75.97;;;11.60;99.90;;;;;;4971942;28;20051;-75
2023/10/23 05:34:38;;;;;;;77.38;73.32;;;11.60;99.90;;;;;;4961167;28;20035;-75
2023/10/23 05:37:04;;;;;;;95.13;89.38;;;11.60;99.90;;;;;;4964273;28;20054;-75
2023/10/23 05:39:30;;;;;;;76.63;72.50;;;11.60;99.90;;;;;;4968775;28;20050;-75
2023/10/23 05:41:56;;;;;;;81.43;76.78;;;11.60;99.90;;;;;;4964642;28;20042;-75
2023/10/23 05:44:22;;;;;;;82.63;78.13;;;11.60;99.90;;;;;;4955811;28;20039;-75
2023/10/23 05:46:48;;;;;;;81.70;77.22;;;11.60;99.90;;;;;;4969423;28;20039;-75
2023/10/23 05:49:14;;;;;;;84.25;79.40;;;11.60;99.90;;;;;;4972907;28;20393;-75
2023/10/23 05:51:40;;;;;;;73.57;69.60;;;11.60;99.90;;;;;;4972858;28;20039;-75
2023/10/23 05:54:08;;;;;;;87.70;82.63;;;11.70;99.90;;;;;;4967430;28;20399;-75
2023/10/23 05:56:34;;;;;;;82.05;77.85;;;11.60;99.90;;;;;;4961742;28;20028;-75
2023/10/23 05:59:00;;;;;;;86.95;82.18;;;11.70;99.90;;;;;;4959795;28;20057;-75
2023/10/23 06:01:26;;;;;;;86.18;81.45;;;11.70;99.90;;;;;;4960171;28;20047;-75
2023/10/23 06:03:53;;;;;;;83.00;78.30;;;11.60;99.90;;;;;;4956615;28;20031;-75
2023/10/23 06:06:19;;;;;;;80.18;75.80;;;11.60;99.90;;;;;;4964709;28;20039;-75
2023/10/23 06:08:46;;;;;;;78.07;73.88;;;11.60;99.90;;;;;;4957957;28;20046;-75
2023/10/23 06:11:12;;;;;;;92.18;87.05;;;11.60;99.90;;;;;;4964937;28;20047;-74
2023/10/23 06:13:38;;;;;;;77.65;73.43;;;11.50;99.90;;;;;;4969749;28;20047;-75
2023/10/23 06:16:05;;;;;;;78.95;74.57;;;11.50;99.90;;;;;;4967560;28;20047;-75
2023/10/23 06:18:32;;;;;;;79.85;75.60;;;11.60;99.90;;;;;;4969010;28;20038;-75
2023/10/23 06:21:00;;;;;;;80.65;75.80;;;11.60;99.90;;;;;;4966526;28;20042;-75
2023/10/23 06:23:26;;;;;;;77.70;73.28;;;11.60;99.90;;;;;;4965477;28;20069;-75
2023/10/23 06:25:55;;;;;;;77.18;73.20;;;11.60;99.90;;;;;;4967646;28;20028;-75
2023/10/23 06:28:21;;;;;;;80.03;75.90;;;11.60;99.90;;;;;;4971201;28;20038;-75
2023/10/23 06:30:47;;;;;;;76.50;72.45;;;11.50;99.90;;;;;;4971933;28;20046;-75
2023/10/23 06:33:13;;;;;;;83.18;78.47;;;11.50;99.90;;;;;;4972695;28;20042;-75
2023/10/23 06:35:40;;;;;;;76.55;71.97;;;11.60;99.90;;;;;;4952634;29;20055;-75
2023/10/23 06:38:06;;;;;;;80.75;76.10;;;11.60;99.90;;;;;;4969860;28;20045;-75
2023/10/23 06:40:32;;;;;;;74.88;70.97;;;11.50;99.90;;;;;;4966156;28;20035;-75
2023/10/23 06:42:58;;;;;;;71.95;68.00;;;11.50;99.90;;;;;;4971083;28;20053;-75
2023/10/23 06:45:24;;;;;;;80.93;76.38;;;11.60;99.90;;;;;;4966507;28;20049;-75
2023/10/23 06:47:50;;;;;;;73.25;69.15;;;11.60;99.90;;;;;;4955803;28;20050;-75
2023/10/23 06:50:17;;;;;;;74.93;70.90;;;11.60;99.90;;;;;;4960759;28;20077;-75
2023/10/23 06:52:43;;;;;;;75.88;71.80;;;11.60;99.90;;;;;;4972325;28;20395;-75
2023/10/23 06:55:09;;;;;;;74.70;70.65;;;11.60;99.90;;;;;;4964680;28;20041;-75
2023/10/23 06:57:36;;;;;;;77.32;73.13;;;11.60;99.90;;;;;;4968755;28;20468;-75
2023/10/23 07:00:02;;;;;;;78.47;74.25;;;11.50;99.90;;;;;;4973057;28;20038;-77
2023/10/23 07:02:28;;;;;;;56.53;53.25;;;11.70;99.90;;;;;;4954335;28;20066;-77
2023/10/23 07:04:54;;;;;;;61.78;58.15;;;12.00;99.90;;;;;;4954501;28;20031;-77
2023/10/23 07:07:20;;;;;;;89.05;83.75;;;12.20;99.90;;;;;;4965852;28;20043;-75
2023/10/23 07:09:46;;;;;;;87.80;83.00;;;12.20;99.90;;;;;;4954298;28;20046;-75
2023/10/23 07:12:12;;;;;;;92.20;87.03;;;12.10;99.90;;;;;;4954914;28;20400;-75
2023/10/23 07:14:39;;;;;;;95.63;90.05;;;11.90;99.90;;;;;;4964597;28;20037;-75
2023/10/23 07:17:05;;;;;;;93.05;87.97;;;11.70;99.90;;;;;;4969864;28;20404;-75
2023/10/23 07:19:31;;;;;;;96.78;91.53;;;11.60;99.90;;;;;;4973169;28;20035;-75
2023/10/23 07:21:57;;;;;;;82.55;77.95;;;11.60;99.90;;;;;;4968690;28;20035;-75
2023/10/23 07:24:23;;;;;;;67.43;63.75;;;11.60;99.90;;;;;;4960693;28;20027;-75
2023/10/23 07:26:49;;;;;;;75.28;71.22;;;11.60;99.90;;;;;;4967616;28;20041;-78
2023/10/23 07:29:15;;;;;;;58.72;55.03;;;11.50;99.90;;;;;;4963161;28;20046;-77
2023/10/23 07:31:41;;;;;;;73.18;69.28;;;11.50;99.90;;;;;;4962820;28;20416;-79
2023/10/23 07:34:09;;;;;;;89.53;84.28;;;11.50;99.90;;;;;;4964074;28;20412;-77
2023/10/23 07:36:37;;;;;;;68.97;64.80;;;11.50;99.90;;;;;;4963007;28;20027;-78
2023/10/23 07:39:03;;;;;;;65.82;62.33;;;11.50;99.90;;;;;;4963841;28;20038;-77
2023/10/23 07:41:30;;;;;;;64.65;60.78;;;11.60;99.90;;;;;;4965392;28;20051;-78
2023/10/23 07:43:56;;;;;;;61.30;57.90;;;11.60;99.90;;;;;;4962658;28;21058;-75
2023/10/23 07:46:22;;;;;;;73.55;69.05;;;11.80;99.90;;;;;;4959520;28;20038;-77
2023/10/23 07:48:49;;;;;;;86.28;81.28;;;12.10;99.90;;;;;;4963607;28;20062;-74
2023/10/23 07:51:15;;;;;;;85.45;80.85;;;12.20;99.90;;;;;;4957942;28;20031;-79
2023/10/23 07:53:41;;;;;;;98.18;92.88;;;12.30;99.90;;;;;;4962868;28;20038;-78
2023/10/23 07:56:07;;;;;;;84.68;80.30;;;12.20;99.90;;;;;;4963150;28;20050;-78
2023/10/23 07:58:34;;;;;;;84.47;80.10;;;11.90;99.90;;;;;;4963024;28;20042;-77
2023/10/23 08:01:10;;;;;;;77.55;73.32;;;11.80;99.90;;;;;;4962502;28;20034;-78
2023/10/23 08:03:36;;;;;;;65.35;61.72;;;11.80;99.90;;;;;;4968786;28;20050;-77
2023/10/23 08:06:03;;;;;;;68.53;64.95;;;11.80;99.90;;;;;;4965299;28;20050;-78
2023/10/23 08:08:33;;;;;;;70.82;66.45;;;11.70;99.90;;;;;;4966354;28;20400;-78
2023/10/23 08:11:01;;;;;;;70.97;66.70;;;11.60;99.90;;;;;;4980111;28;20058;-76
2023/10/23 08:13:28;;;;;;;85.80;81.22;;;11.50;99.90;;;;;;4967213;28;20508;-78
2023/10/23 08:15:54;;;;;;;67.70;63.75;;;11.50;99.90;;;;;;4961947;28;20039;-78
2023/10/23 08:18:21;;;;;;;55.55;52.15;;;11.50;99.90;;;;;;4962734;28;20042;-78
2023/10/23 08:20:47;;;;;;;60.85;57.38;;;11.50;99.90;;;;;;4963998;28;20481;-77
2023/10/23 08:23:13;;;;;;;59.88;56.53;;;11.60;99.90;;;;;;4967106;28;20035;-76
2023/10/23 08:25:41;;;;;;;57.45;53.80;;;11.50;99.90;;;;;;4969762;28;20386;-77
2023/10/23 08:28:08;;;;;;;57.38;54.03;;;11.50;99.90;;;;;;4967132;28;20541;-78
2023/10/23 08:30:34;;;;;;;64.05;60.25;;;11.50;99.90;;;;;;4967554;28;20504;-75
2023/10/23 08:33:00;;;;;;;58.33;54.97;;;11.50;99.90;;;;;;4974918;28;20047;-75
2023/10/23 08:35:28;;;;;;;59.47;56.13;;;11.60;99.90;;;;;;4961638;28;20042;-76
2023/10/23 08:37:54;;;;;;;53.92;50.58;;;11.60;99.90;;;;;;4972311;28;20027;-75
2023/10/23 08:40:24;;;;;;;60.92;57.10;;;11.60;99.90;;;;;;4969308;28;20031;-75
2023/10/23 08:42:50;;;;;;;60.42;56.92;;;11.70;99.90;;;;;;4965528;28;20046;-75
2023/10/23 08:45:16;;;;;;;62.30;58.63;;;11.60;99.90;;;;;;4956442;28;20039;-75
2023/10/23 08:47:42;;;;;;;61.78;57.92;;;11.60;99.90;;;;;;4955541;28;20034;-76
2023/10/23 08:50:12;;;;;;;54.03;50.83;;;11.60;99.90;;;;;;4961948;28;20031;-73
2023/10/23 08:52:46;;;;;;;60.28;56.78;;;11.70;99.90;;;;;;4973747;28;20046;-75
2023/10/23 08:55:13;;;;;;;59.97;56.35;;;11.80;99.90;;;;;;4974209;28;20038;-75
2023/10/23 08:57:53;;;;;;;61.70;57.95;;;11.70;99.90;;;;;;4971868;28;20031;-76
2023/10/23 09:00:25;;;;;;;46.05;43.28;;;11.70;99.90;;;;;;4956191;28;20503;-75
2023/10/23 09:02:53;;;;;;;52.50;49.42;;;11.70;99.90;;;;;;4969260;28;20053;-76
2023/10/23 09:05:20;;;;;;;49.22;46.30;;;11.70;99.90;;;;;;4970854;28;20066;-75
2023/10/23 09:07:46;;;;;;;61.42;58.13;;;11.70;99.90;;;;;;4972547;28;20046;-76
2023/10/23 09:10:12;;;;;;;52.75;49.65;;;11.80;99.90;;;;;;4970541;28;20035;-75
2023/10/23 09:12:39;;;;;;;55.60;52.42;;;11.70;99.90;;;;;;4967500;28;20086;-75
2023/10/23 09:15:21;;;;;;;60.60;56.28;;;11.80;99.90;;;;;;4966680;28;20031;-75
2023/10/23 09:17:49;;;;;;;57.60;54.22;;;12.00;99.90;;;;;;4972262;28;20047;-76
2023/10/23 09:20:18;;;;;;;61.90;58.13;;;12.00;99.90;;;;;;4963930;28;20038;-76
2023/10/23 09:22:48;;;;;;;62.17;58.20;;;12.00;99.90;;;;;;4972801;28;20050;-75
2023/10/23 09:25:19;;;;;;;49.47;46.55;;;12.00;99.90;;;;;;4972679;28;20042;-75
2023/10/23 09:27:45;;;;;;;48.28;45.22;;;12.10;99.90;;;;;;4947611;29;20027;-76
2023/10/23 09:30:13;;;;;;;55.40;52.20;;;12.20;99.90;;;;;;4968449;28;20043;-75
2023/10/23 09:32:40;;;;;;;57.42;53.70;;;12.30;99.90;;;;;;4967183;28;20031;-76
2023/10/23 09:35:07;;;;;;;59.05;55.50;;;12.30;99.90;;;;;;4966108;28;20038;-76
2023/10/23 09:37:33;;;;;;;70.63;66.38;;;12.30;99.90;;;;;;4957848;28;20376;-76
2023/10/23 09:40:08;;;;;;;72.28;67.88;;;12.20;99.90;;;;;;4954033;28;20043;-75
2023/10/23 09:42:34;;;;;;;76.07;71.60;;;12.20;99.90;;;;;;4962594;28;20039;-76
2023/10/23 09:45:01;;;;;;;72.90;68.50;;;12.10;99.90;;;;;;4964516;28;20050;-76
2023/10/23 09:47:28;;;;;;;70.68;66.50;;;12.10;99.90;;;;;;4956131;28;20127;-76
2023/10/23 09:49:54;;;;;;;79.57;75.22;;;12.20;99.90;;;;;;4952889;28;20038;-75
2023/10/23 09:52:23;;;;;;;67.65;63.38;;;12.10;99.90;;;;;;4960580;28;20384;-76
2023/10/23 09:54:50;;;;;;;55.97;52.55;;;12.10;99.90;;;;;;4971220;28;20047;-75
2023/10/23 09:57:19;;;;;;;57.47;53.72;;;12.20;99.90;;;;;;4964774;28;20062;-75
2023/10/23 09:59:48;;;;;;;58.03;54.58;;;12.30;99.90;;;;;;4952958;28;20047;-76
2023/10/23 10:02:17;;;;;;;54.55;51.45;;;12.20;99.90;;;;;;4968351;28;20036;-76
2023/10/23 10:04:49;;;;;;;52.10;48.78;;;12.20;99.90;;;;;;4939015;29;20032;-75
2023/10/23 10:07:27;;;;;;;54.22;50.70;;;12.30;99.90;;;;;;4955275;28;20046;-75
2023/10/23 10:09:54;;;;;;;55.97;52.72;;;12.30;99.90;;;;;;4953483;28;20038;-75
2023/10/23 10:12:20;;;;;;;61.72;58.17;;;12.30;99.90;;;;;;4958793;28;20469;-76
2023/10/23 10:14:46;;;;;;;50.85;47.70;;;12.30;99.90;;;;;;4959640;28;20480;-75
2023/10/23 10:17:13;;;;;;;52.30;49.20;;;12.50;99.90;;;;;;4969042;28;20527;-75
2023/10/23 10:19:39;;;;;;;61.88;58.05;;;12.40;99.90;;;;;;4982953;28;20399;-75
2023/10/23 10:22:13;;;;;;;53.10;49.78;;;12.30;99.90;;;;;;4962579;28;20022;-75
2023/10/23 10:24:39;;;;;;;51.38;48.38;;;12.40;99.90;;;;;;4983713;28;20040;-75
2023/10/23 10:27:05;;;;;;;50.38;47.53;;;12.50;99.90;;;;;;4945211;28;20031;-75
2023/10/23 10:29:32;;;;;;;52.70;49.38;;;12.50;99.90;;;;;;4972553;28;20032;-75
2023/10/23 10:32:05;;;;;;;54.33;51.08;;;12.50;99.90;;;;;;4959169;28;20035;-75
2023/10/23 10:34:46;;;;;;;80.40;76.03;;;12.60;99.90;;;;;;4953836;29;20054;-75
2023/10/23 10:37:13;;;;;;;76.38;72.00;;;12.50;99.90;;;;;;4969513;28;20049;-75
2023/10/23 10:39:50;;;;;;;64.80;60.83;;;12.70;99.90;;;;;;4972739;28;20039;-75
2023/10/23 10:42:21;;;;;;;73.15;68.80;;;12.70;99.90;;;;;;4973213;28;20404;-75
2023/10/23 10:44:59;;;;;;;62.15;58.30;;;12.60;99.90;;;;;;4972305;28;20038;-75
2023/10/23 10:47:41;;;;;;;79.63;74.90;;;12.60;99.90;;;;;;4967962;28;20066;-75
2023/10/23 10:50:08;;;;;;;71.35;67.13;;;12.70;99.90;;;;;;4966198;28;20031;-75
2023/10/23 10:52:38;;;;;;;74.63;70.43;;;12.60;99.90;;;;;;4971519;28;20051;-75
2023/10/23 10:55:08;;;;;;;61.25;57.22;;;12.60;99.90;;;;;;4969860;28;20054;-77
2023/10/23 10:57:43;;;;;;;63.22;59.63;;;12.60;99.90;;;;;;4988101;28;20046;-77
2023/10/23 11:00:09;;;;;;;67.72;63.67;;;12.70;99.90;;;;;;4971522;28;20400;-77
2023/10/23 11:02:36;;;;;;;66.72;62.70;;;12.60;99.90;;;;;;4958231;28;20018;-77
2023/10/23 11:05:12;;;;;;;49.30;46.22;;;12.60;99.90;;;;;;4956366;28;20062;-77
2023/10/23 11:07:38;;;;;;;43.03;40.13;;;12.70;99.90;;;;;;4971780;28;20069;-76
2023/10/23 11:10:05;;;;;;;58.15;54.80;;;12.90;99.90;;;;;;4971067;28;20034;-77
2023/10/23 11:12:31;;;;;;;57.42;54.13;;;13.00;99.90;;;;;;4961097;28;20031;-76
2023/10/23 11:14:57;;;;;;;50.05;46.88;;;13.20;99.90;;;;;;4971169;28;20046;-77
2023/10/23 11:17:23;;;;;;;54.78;51.55;;;13.20;99.90;;;;;;4970915;28;20066;-76
2023/10/23 11:19:49;;;;;;;75.22;71.13;;;13.20;99.90;;;;;;4959164;28;20042;-77
2023/10/23 11:22:18;;;;;;;59.65;56.20;;;13.20;99.90;;;;;;4956335;28;20051;-77
2023/10/23 11:24:45;;;;;;;89.18;83.95;;;13.20;99.90;;;;;;4951042;28;20042;-76
2023/10/23 11:27:11;;;;;;;66.07;62.42;;;13.30;99.90;;;;;;4957478;28;20042;-75
2023/10/23 11:29:39;;;;;;;72.20;68.20;;;13.30;99.90;;;;;;4963114;28;20027;-76
2023/10/23 11:32:08;;;;;;;74.57;70.30;;;13.30;99.90;;;;;;4956354;28;20050;-77
2023/10/23 11:34:37;;;;;;;74.78;70.57;;;13.30;99.90;;;;;;4957563;28;20036;-77
2023/10/23 11:37:04;;;;;;;73.55;69.65;;;13.40;99.90;;;;;;4966968;28;20030;-77
2023/10/23 11:39:30;;;;;;;68.15;64.30;;;13.50;99.90;;;;;;4965303;28;20031;-74
2023/10/23 11:41:57;;;;;;;78.95;74.65;;;13.50;99.90;;;;;;4964596;28;20027;-74
2023/10/23 11:44:24;;;;;;;95.72;90.38;;;13.50;99.90;;;;;;4961614;28;20042;-76
2023/10/23 11:46:50;;;;;;;98.00;92.78;;;13.50;99.90;;;;;;4963226;28;20031;-76
2023/10/23 11:49:20;;;;;;;68.63;64.90;;;13.50;99.90;;;;;;4946996;28;20038;-76
2023/10/23 11:51:46;;;;;;;66.25;62.55;;;13.60;99.90;;;;;;4960670;28;20046;-75
2023/10/23 11:54:12;;;;;;;75.13;71.07;;;13.70;99.90;;;;;;4964138;28;20047;-76
2023/10/23 11:56:38;;;;;;;100.25;94.90;;;13.70;99.90;;;;;;4961370;28;20039;-76
2023/10/23 11:59:04;;;;;;;70.00;66.03;;;13.70;99.90;;;;;;4968950;28;20037;-76
2023/10/23 12:01:31;;;;;;;94.95;89.18;;;13.90;99.90;;;;;;4959839;28;20381;-76
2023/10/23 12:03:57;;;;;;;87.43;82.80;;;14.00;99.90;;;;;;4967504;28;20420;-76
2023/10/23 12:06:23;;;;;;;108.72;102.82;;;14.20;99.90;;;;;;4966387;28;20022;-76
2023/10/23 12:08:49;;;;;;;105.28;99.65;;;14.30;99.90;;;;;;4949667;28;20400;-76
2023/10/23 12:11:15;;;;;;;112.40;105.82;;;14.20;99.90;;;;;;4969458;28;20042;-76
2023/10/23 12:13:41;;;;;;;106.88;101.25;;;14.10;99.90;;;;;;4970990;28;20038;-76
2023/10/23 12:16:09;;;;;;;125.75;118.95;;;14.10;99.90;;;;;;4956033;28;20508;-76
2023/10/23 12:18:36;;;;;;;101.35;95.88;;;14.20;99.90;;;;;;4953778;28;20019;-76
2023/10/23 12:21:05;;;;;;;148.00;140.23;;;14.20;99.90;;;;;;4953371;28;20032;-74
2023/10/23 12:23:31;;;;;;;121.93;115.72;;;14.20;99.90;;;;;;4965378;28;20039;-74
2023/10/23 12:25:57;;;;;;;105.45;99.95;;;14.20;99.90;;;;;;4962901;28;20042;-74